sensor_id;sensor_type;location;lat;lon;timestamp;temperature;humidity
18906;DHT22;9585;51.018;4.282;2022-12-18T00:02:26;-6.30;99.90
18906;DHT22;9585;51.018;4.282;2022-12-18T00:04:53;-6.30;99.90
18906;DHT22;9585;51.018;4.282;2022-12-18T00:07:21;-6.30;99.90
18906;DHT22;9585;51.018;4.282;2022-12-18T00:09:49;-6.30;99.90
18906;DHT22;9585;51.018;4.282;2022-12-18T00:12:17;-6.40;99.90
18906;DHT22;9585;51.018;4.282;2022-12-18T00:14:44;-6.40;99.90
18906;DHT22;9585;51.018;4.282;2022-12-18T00:17:11;-6.50;99.90
18906;DHT22;9585;51.018;4.282;2022-12-18T00:19:39;-6.60;99.90
18906;DHT22;9585;51.018;4.282;2022-12-18T00:22:06;-6.70;99.90
18906;DHT22;9585;51.018;4.282;2022-12-18T00:24:33;-6.70;99.90
18906;DHT22;9585;51.018;4.282;2022-12-18T00:27:02;-6.60;99.90
18906;DHT22;9585;51.018;4.282;2022-12-18T00:29:29;-6.60;99.90
18906;DHT22;9585;51.018;4.282;2022-12-18T00:31:57;-6.50;99.90
18906;DHT22;9585;51.018;4.282;2022-12-18T00:34:24;-6.60;99.90
18906;DHT22;9585;51.018;4.282;2022-12-18T00:36:52;-6.60;99.90
18906;DHT22;9585;51.018;4.282;2022-12-18T00:39:19;-6.60;99.90
18906;DHT22;9585;51.018;4.282;2022-12-18T00:41:46;-6.60;99.90
18906;DHT22;9585;51.018;4.282;2022-12-18T00:44:32;-6.60;99.90
18906;DHT22;9585;51.018;4.282;2022-12-18T00:47:00;-6.60;99.90
18906;DHT22;9585;51.018;4.282;2022-12-18T00:49:27;-6.70;99.90
18906;DHT22;9585;51.018;4.282;2022-12-18T00:51:55;-6.70;99.90
18906;DHT22;9585;51.018;4.282;2022-12-18T00:54:22;-6.70;99.90
18906;DHT22;9585;51.018;4.282;2022-12-18T00:56:49;-6.70;99.90
18906;DHT22;9585;51.018;4.282;2022-12-18T00:59:18;-6.70;99.90
18906;DHT22;9585;51.018;4.282;2022-12-18T01:01:47;-6.80;99.90
18906;DHT22;9585;51.018;4.282;2022-12-18T01:04:15;-6.80;99.90
18906;DHT22;9585;51.018;4.282;2022-12-18T01:06:42;-6.80;99.90
18906;DHT22;9585;51.018;4.282;2022-12-18T01:09:09;-6.90;99.90
18906;DHT22;9585;51.018;4.282;2022-12-18T01:11:37;-6.90;99.90
18906;DHT22;9585;51.018;4.282;2022-12-18T01:14:04;-6.90;99.90
18906;DHT22;9585;51.018;4.282;2022-12-18T01:16:32;-6.90;99.90
18906;DHT22;9585;51.018;4.282;2022-12-18T01:19:01;-6.90;99.90
18906;DHT22;9585;51.018;4.282;2022-12-18T01:21:28;-6.90;99.90
18906;DHT22;9585;51.018;4.282;2022-12-18T01:23:56;-7.00;99.90
18906;DHT22;9585;51.018;4.282;2022-12-18T01:26:24;-7.00;99.90
18906;DHT22;9585;51.018;4.282;2022-12-18T01:28:54;-7.00;99.90
18906;DHT22;9585;51.018;4.282;2022-12-18T01:31:24;-7.10;99.90
18906;DHT22;9585;51.018;4.282;2022-12-18T01:33:52;-7.10;99.90
18906;DHT22;9585;51.018;4.282;2022-12-18T01:36:23;-7.20;99.90
18906;DHT22;9585;51.018;4.282;2022-12-18T01:38:51;-7.10;99.90
18906;DHT22;9585;51.018;4.282;2022-12-18T01:41:20;-7.10;99.90
18906;DHT22;9585;51.018;4.282;2022-12-18T01:43:51;-7.10;99.90
18906;DHT22;9585;51.018;4.282;2022-12-18T01:46:21;-7.10;99.90
18906;DHT22;9585;51.018;4.282;2022-12-18T01:48:50;-7.10;99.90
18906;DHT22;9585;51.018;4.282;2022-12-18T01:51:19;-7.10;99.90
18906;DHT22;9585;51.018;4.282;2022-12-18T01:53:48;-7.10;99.90
18906;DHT22;9585;51.018;4.282;2022-12-18T01:56:17;-7.10;99.90
18906;DHT22;9585;51.018;4.282;2022-12-18T01:58:51;-7.10;99.90
18906;DHT22;9585;51.018;4.282;2022-12-18T02:01:21;-7.20;99.90
18906;DHT22;9585;51.018;4.282;2022-12-18T02:03:49;-7.20;99.90
18906;DHT22;9585;51.018;4.282;2022-12-18T02:06:20;-7.20;99.90
18906;DHT22;9585;51.018;4.282;2022-12-18T02:08:55;-7.20;99.90
18906;DHT22;9585;51.018;4.282;2022-12-18T02:11:36;-7.30;99.90
18906;DHT22;9585;51.018;4.282;2022-12-18T02:14:13;-7.30;99.90
18906;DHT22;9585;51.018;4.282;2022-12-18T02:16:48;-7.30;99.90
18906;DHT22;9585;51.018;4.282;2022-12-18T02:19:37;-7.30;99.90
18906;DHT22;9585;51.018;4.282;2022-12-18T02:22:17;-7.40;99.90
18906;DHT22;9585;51.018;4.282;2022-12-18T02:24:59;-7.40;99.90
18906;DHT22;9585;51.018;4.282;2022-12-18T02:27:30;-7.40;99.90
18906;DHT22;9585;51.018;4.282;2022-12-18T02:29:59;-7.40;99.90
18906;DHT22;9585;51.018;4.282;2022-12-18T02:32:34;-7.40;99.90
18906;DHT22;9585;51.018;4.282;2022-12-18T02:35:05;-7.40;99.90
18906;DHT22;9585;51.018;4.282;2022-12-18T02:37:34;-7.40;99.90
18906;DHT22;9585;51.018;4.282;2022-12-18T02:40:04;-7.40;99.90
18906;DHT22;9585;51.018;4.282;2022-12-18T02:42:34;-7.50;99.90
18906;DHT22;9585;51.018;4.282;2022-12-18T02:45:01;-7.50;99.90
18906;DHT22;9585;51.018;4.282;2022-12-18T02:47:32;-7.50;99.90
18906;DHT22;9585;51.018;4.282;2022-12-18T02:50:08;-7.50;99.90
18906;DHT22;9585;51.018;4.282;2022-12-18T02:52:44;-7.50;99.90
18906;DHT22;9585;51.018;4.282;2022-12-18T02:55:23;-7.50;99.90
18906;DHT22;9585;51.018;4.282;2022-12-18T02:57:56;-7.50;99.90
18906;DHT22;9585;51.018;4.282;2022-12-18T03:00:30;-7.50;99.90
18906;DHT22;9585;51.018;4.282;2022-12-18T03:03:04;-7.50;99.90
18906;DHT22;9585;51.018;4.282;2022-12-18T03:05:36;-7.60;99.90
18906;DHT22;9585;51.018;4.282;2022-12-18T03:08:08;-7.70;99.90
18906;DHT22;9585;51.018;4.282;2022-12-18T03:10:44;-7.80;99.90
18906;DHT22;9585;51.018;4.282;2022-12-18T03:13:16;-7.80;99.90
18906;DHT22;9585;51.018;4.282;2022-12-18T03:15:50;-7.80;99.90
18906;DHT22;9585;51.018;4.282;2022-12-18T03:18:21;-7.80;99.90
18906;DHT22;9585;51.018;4.282;2022-12-18T03:20:53;-7.80;99.90
18906;DHT22;9585;51.018;4.282;2022-12-18T03:23:25;-7.80;99.90
18906;DHT22;9585;51.018;4.282;2022-12-18T03:25:57;-7.80;99.90
18906;DHT22;9585;51.018;4.282;2022-12-18T03:28:27;-7.80;99.90
18906;DHT22;9585;51.018;4.282;2022-12-18T03:30:57;-7.80;99.90
18906;DHT22;9585;51.018;4.282;2022-12-18T03:33:27;-7.80;99.90
18906;DHT22;9585;51.018;4.282;2022-12-18T03:35:55;-7.70;99.90
18906;DHT22;9585;51.018;4.282;2022-12-18T03:38:23;-7.70;99.90
18906;DHT22;9585;51.018;4.282;2022-12-18T03:40:56;-7.70;99.90
18906;DHT22;9585;51.018;4.282;2022-12-18T03:43:35;-7.70;99.90
18906;DHT22;9585;51.018;4.282;2022-12-18T03:46:09;-7.80;99.90
18906;DHT22;9585;51.018;4.282;2022-12-18T03:48:43;-7.80;99.90
18906;DHT22;9585;51.018;4.282;2022-12-18T03:51:16;-7.80;99.90
18906;DHT22;9585;51.018;4.282;2022-12-18T03:53:49;-7.80;99.90
18906;DHT22;9585;51.018;4.282;2022-12-18T03:56:18;-7.80;99.90
18906;DHT22;9585;51.018;4.282;2022-12-18T03:58:50;-7.80;99.90
18906;DHT22;9585;51.018;4.282;2022-12-18T04:01:23;-7.70;99.90
18906;DHT22;9585;51.018;4.282;2022-12-18T04:03:58;-7.60;99.90
18906;DHT22;9585;51.018;4.282;2022-12-18T04:06:27;-7.70;99.90
18906;DHT22;9585;51.018;4.282;2022-12-18T04:08:55;-7.70;99.90
18906;DHT22;9585;51.018;4.282;2022-12-18T04:11:23;-7.70;99.90
18906;DHT22;9585;51.018;4.282;2022-12-18T04:13:55;-7.70;99.90
18906;DHT22;9585;51.018;4.282;2022-12-18T04:16:23;-7.60;99.90
18906;DHT22;9585;51.018;4.282;2022-12-18T04:18:50;-7.60;99.90
18906;DHT22;9585;51.018;4.282;2022-12-18T04:21:18;-7.70;99.90
18906;DHT22;9585;51.018;4.282;2022-12-18T04:23:46;-7.70;99.90
18906;DHT22;9585;51.018;4.282;2022-12-18T04:26:13;-7.60;99.90
18906;DHT22;9585;51.018;4.282;2022-12-18T04:28:40;-7.60;99.90
18906;DHT22;9585;51.018;4.282;2022-12-18T04:31:09;-7.60;99.90
18906;DHT22;9585;51.018;4.282;2022-12-18T04:33:37;-7.60;99.90
18906;DHT22;9585;51.018;4.282;2022-12-18T04:36:05;-7.70;99.90
18906;DHT22;9585;51.018;4.282;2022-12-18T04:38:32;-7.70;99.90
18906;DHT22;9585;51.018;4.282;2022-12-18T04:41:00;-7.70;99.90
18906;DHT22;9585;51.018;4.282;2022-12-18T04:43:27;-7.80;99.90
18906;DHT22;9585;51.018;4.282;2022-12-18T04:46:01;-7.80;99.90
18906;DHT22;9585;51.018;4.282;2022-12-18T04:48:30;-7.90;99.90
18906;DHT22;9585;51.018;4.282;2022-12-18T04:50:57;-7.90;99.90
18906;DHT22;9585;51.018;4.282;2022-12-18T04:53:25;-8.00;99.90
18906;DHT22;9585;51.018;4.282;2022-12-18T04:56:06;-8.00;99.90
18906;DHT22;9585;51.018;4.282;2022-12-18T04:58:34;-8.10;99.90
18906;DHT22;9585;51.018;4.282;2022-12-18T05:01:02;-8.10;99.90
18906;DHT22;9585;51.018;4.282;2022-12-18T05:03:31;-8.10;99.90
18906;DHT22;9585;51.018;4.282;2022-12-18T05:05:58;-8.10;99.90
18906;DHT22;9585;51.018;4.282;2022-12-18T05:08:26;-8.10;99.90
18906;DHT22;9585;51.018;4.282;2022-12-18T05:10:58;-8.10;99.90
18906;DHT22;9585;51.018;4.282;2022-12-18T05:13:27;-8.20;99.90
18906;DHT22;9585;51.018;4.282;2022-12-18T05:15:55;-8.20;99.90
18906;DHT22;9585;51.018;4.282;2022-12-18T05:18:23;-8.30;99.90
18906;DHT22;9585;51.018;4.282;2022-12-18T05:20:52;-8.30;99.90
18906;DHT22;9585;51.018;4.282;2022-12-18T05:23:21;-8.40;99.90
18906;DHT22;9585;51.018;4.282;2022-12-18T05:25:51;-8.40;99.90
18906;DHT22;9585;51.018;4.282;2022-12-18T05:28:19;-8.40;99.90
18906;DHT22;9585;51.018;4.282;2022-12-18T05:30:48;-8.40;99.90
18906;DHT22;9585;51.018;4.282;2022-12-18T05:33:16;-8.40;99.90
18906;DHT22;9585;51.018;4.282;2022-12-18T05:35:44;-8.40;99.90
18906;DHT22;9585;51.018;4.282;2022-12-18T05:38:13;-8.40;99.90
18906;DHT22;9585;51.018;4.282;2022-12-18T05:40:41;-8.50;99.90
18906;DHT22;9585;51.018;4.282;2022-12-18T05:43:09;-8.40;99.90
18906;DHT22;9585;51.018;4.282;2022-12-18T05:45:37;-8.40;99.90
18906;DHT22;9585;51.018;4.282;2022-12-18T05:48:05;-8.30;99.90
18906;DHT22;9585;51.018;4.282;2022-12-18T05:50:34;-8.30;99.90
18906;DHT22;9585;51.018;4.282;2022-12-18T05:53:02;-8.40;99.90
18906;DHT22;9585;51.018;4.282;2022-12-18T05:55:33;-8.30;99.90
18906;DHT22;9585;51.018;4.282;2022-12-18T05:58:00;-8.40;99.90
18906;DHT22;9585;51.018;4.282;2022-12-18T06:00:28;-8.40;99.90
18906;DHT22;9585;51.018;4.282;2022-12-18T06:02:55;-8.30;99.90
18906;DHT22;9585;51.018;4.282;2022-12-18T06:05:23;-8.30;99.90
18906;DHT22;9585;51.018;4.282;2022-12-18T06:07:50;-8.20;99.90
18906;DHT22;9585;51.018;4.282;2022-12-18T06:10:18;-8.20;99.90
18906;DHT22;9585;51.018;4.282;2022-12-18T06:12:48;-8.20;99.90
18906;DHT22;9585;51.018;4.282;2022-12-18T06:15:15;-8.20;99.90
18906;DHT22;9585;51.018;4.282;2022-12-18T06:17:42;-8.20;99.90
18906;DHT22;9585;51.018;4.282;2022-12-18T06:20:10;-8.20;99.90
18906;DHT22;9585;51.018;4.282;2022-12-18T06:22:37;-8.20;99.90
18906;DHT22;9585;51.018;4.282;2022-12-18T06:25:06;-8.20;99.90
18906;DHT22;9585;51.018;4.282;2022-12-18T06:27:33;-8.30;99.90
18906;DHT22;9585;51.018;4.282;2022-12-18T06:30:03;-8.30;99.90
18906;DHT22;9585;51.018;4.282;2022-12-18T06:32:30;-8.40;99.90
18906;DHT22;9585;51.018;4.282;2022-12-18T06:34:58;-8.40;99.90
18906;DHT22;9585;51.018;4.282;2022-12-18T06:37:25;-8.50;99.90
18906;DHT22;9585;51.018;4.282;2022-12-18T06:39:53;-8.40;99.90
18906;DHT22;9585;51.018;4.282;2022-12-18T06:42:23;-8.50;99.90
18906;DHT22;9585;51.018;4.282;2022-12-18T06:44:51;-8.50;99.90
18906;DHT22;9585;51.018;4.282;2022-12-18T06:47:20;-8.50;99.90
18906;DHT22;9585;51.018;4.282;2022-12-18T06:49:47;-8.50;99.90
18906;DHT22;9585;51.018;4.282;2022-12-18T06:52:14;-8.50;99.90
18906;DHT22;9585;51.018;4.282;2022-12-18T06:54:42;-8.50;99.90
18906;DHT22;9585;51.018;4.282;2022-12-18T06:57:09;-8.60;99.90
18906;DHT22;9585;51.018;4.282;2022-12-18T06:59:37;-8.60;99.90
18906;DHT22;9585;51.018;4.282;2022-12-18T07:02:04;-8.60;99.90
18906;DHT22;9585;51.018;4.282;2022-12-18T07:04:33;-8.50;99.90
18906;DHT22;9585;51.018;4.282;2022-12-18T07:07:01;-8.50;99.90
18906;DHT22;9585;51.018;4.282;2022-12-18T07:09:28;-8.50;99.90
18906;DHT22;9585;51.018;4.282;2022-12-18T07:11:56;-8.50;99.90
18906;DHT22;9585;51.018;4.282;2022-12-18T07:14:24;-8.50;99.90
18906;DHT22;9585;51.018;4.282;2022-12-18T07:16:51;-8.40;99.90
18906;DHT22;9585;51.018;4.282;2022-12-18T07:19:19;-8.30;99.90
18906;DHT22;9585;51.018;4.282;2022-12-18T07:21:48;-8.20;99.90
18906;DHT22;9585;51.018;4.282;2022-12-18T07:24:16;-8.20;99.90
18906;DHT22;9585;51.018;4.282;2022-12-18T07:26:45;-8.20;99.90
18906;DHT22;9585;51.018;4.282;2022-12-18T07:29:13;-8.10;99.90
18906;DHT22;9585;51.018;4.282;2022-12-18T07:31:43;-8.10;99.90
18906;DHT22;9585;51.018;4.282;2022-12-18T07:34:11;-8.20;99.90
18906;DHT22;9585;51.018;4.282;2022-12-18T07:36:39;-8.20;99.90
18906;DHT22;9585;51.018;4.282;2022-12-18T07:39:08;-8.10;99.90
18906;DHT22;9585;51.018;4.282;2022-12-18T07:41:35;-8.10;99.90
18906;DHT22;9585;51.018;4.282;2022-12-18T07:44:03;-8.10;99.90
18906;DHT22;9585;51.018;4.282;2022-12-18T07:46:31;-8.00;99.90
18906;DHT22;9585;51.018;4.282;2022-12-18T07:48:58;-8.00;99.90
18906;DHT22;9585;51.018;4.282;2022-12-18T07:51:25;-8.00;99.90
18906;DHT22;9585;51.018;4.282;2022-12-18T07:53:53;-8.10;99.90
18906;DHT22;9585;51.018;4.282;2022-12-18T07:56:22;-8.10;99.90
18906;DHT22;9585;51.018;4.282;2022-12-18T07:58:50;-8.10;99.90
18906;DHT22;9585;51.018;4.282;2022-12-18T08:01:17;-8.10;99.90
18906;DHT22;9585;51.018;4.282;2022-12-18T08:03:44;-8.10;99.90
18906;DHT22;9585;51.018;4.282;2022-12-18T08:06:12;-8.10;99.90
18906;DHT22;9585;51.018;4.282;2022-12-18T08:08:40;-8.10;99.90
18906;DHT22;9585;51.018;4.282;2022-12-18T08:11:10;-8.00;99.90
18906;DHT22;9585;51.018;4.282;2022-12-18T08:13:39;-8.00;99.90
18906;DHT22;9585;51.018;4.282;2022-12-18T08:16:07;-8.00;99.90
18906;DHT22;9585;51.018;4.282;2022-12-18T08:18:36;-8.00;99.90
18906;DHT22;9585;51.018;4.282;2022-12-18T08:21:09;-7.80;99.90
18906;DHT22;9585;51.018;4.282;2022-12-18T08:23:37;-7.60;99.90
18906;DHT22;9585;51.018;4.282;2022-12-18T08:26:05;-7.50;99.90
18906;DHT22;9585;51.018;4.282;2022-12-18T08:28:33;-7.50;99.90
18906;DHT22;9585;51.018;4.282;2022-12-18T08:31:02;-7.50;99.90
18906;DHT22;9585;51.018;4.282;2022-12-18T08:33:30;-7.50;99.90
18906;DHT22;9585;51.018;4.282;2022-12-18T08:35:58;-7.40;99.90
18906;DHT22;9585;51.018;4.282;2022-12-18T08:38:26;-7.20;99.90
18906;DHT22;9585;51.018;4.282;2022-12-18T08:40:58;-7.20;99.90
18906;DHT22;9585;51.018;4.282;2022-12-18T08:43:26;-7.30;99.90
18906;DHT22;9585;51.018;4.282;2022-12-18T08:46:13;-7.40;99.90
18906;DHT22;9585;51.018;4.282;2022-12-18T08:48:41;-7.40;99.90
18906;DHT22;9585;51.018;4.282;2022-12-18T08:51:11;-7.30;99.90
18906;DHT22;9585;51.018;4.282;2022-12-18T08:53:39;-7.40;99.90
18906;DHT22;9585;51.018;4.282;2022-12-18T08:56:10;-7.30;99.90
18906;DHT22;9585;51.018;4.282;2022-12-18T08:58:38;-7.20;99.90
18906;DHT22;9585;51.018;4.282;2022-12-18T09:01:08;-7.30;99.90
18906;DHT22;9585;51.018;4.282;2022-12-18T09:03:37;-7.20;99.90
18906;DHT22;9585;51.018;4.282;2022-12-18T09:06:05;-7.10;99.90
18906;DHT22;9585;51.018;4.282;2022-12-18T09:08:33;-7.00;99.90
18906;DHT22;9585;51.018;4.282;2022-12-18T09:11:02;-6.90;99.90
18906;DHT22;9585;51.018;4.282;2022-12-18T09:13:30;-6.90;99.90
18906;DHT22;9585;51.018;4.282;2022-12-18T09:15:58;-6.80;99.90
18906;DHT22;9585;51.018;4.282;2022-12-18T09:18:25;-6.70;99.90
18906;DHT22;9585;51.018;4.282;2022-12-18T09:20:54;-6.50;99.90
18906;DHT22;9585;51.018;4.282;2022-12-18T09:23:22;-6.30;99.90
18906;DHT22;9585;51.018;4.282;2022-12-18T09:25:49;-6.40;99.90
18906;DHT22;9585;51.018;4.282;2022-12-18T09:28:18;-6.50;99.90
18906;DHT22;9585;51.018;4.282;2022-12-18T09:30:48;-6.50;99.90
18906;DHT22;9585;51.018;4.282;2022-12-18T09:33:16;-6.30;99.90
18906;DHT22;9585;51.018;4.282;2022-12-18T09:35:45;-6.30;99.90
18906;DHT22;9585;51.018;4.282;2022-12-18T09:38:15;-6.20;99.90
18906;DHT22;9585;51.018;4.282;2022-12-18T09:40:45;-6.20;99.90
18906;DHT22;9585;51.018;4.282;2022-12-18T09:43:17;-6.20;99.90
18906;DHT22;9585;51.018;4.282;2022-12-18T09:45:49;-6.20;99.90
18906;DHT22;9585;51.018;4.282;2022-12-18T09:48:22;-6.20;99.90
18906;DHT22;9585;51.018;4.282;2022-12-18T09:50:51;-6.00;99.90
18906;DHT22;9585;51.018;4.282;2022-12-18T09:53:26;-5.70;99.90
18906;DHT22;9585;51.018;4.282;2022-12-18T09:55:56;-5.50;99.90
18906;DHT22;9585;51.018;4.282;2022-12-18T09:58:28;-5.50;99.90
18906;DHT22;9585;51.018;4.282;2022-12-18T10:00:57;-5.50;99.90
18906;DHT22;9585;51.018;4.282;2022-12-18T10:03:24;-5.50;99.90
18906;DHT22;9585;51.018;4.282;2022-12-18T10:06:00;-5.40;99.90
18906;DHT22;9585;51.018;4.282;2022-12-18T10:08:37;-5.50;99.90
18906;DHT22;9585;51.018;4.282;2022-12-18T10:11:27;-5.50;99.90
18906;DHT22;9585;51.018;4.282;2022-12-18T10:13:58;-5.40;99.90
18906;DHT22;9585;51.018;4.282;2022-12-18T10:16:37;-5.30;99.90
18906;DHT22;9585;51.018;4.282;2022-12-18T10:19:21;-5.20;99.90
18906;DHT22;9585;51.018;4.282;2022-12-18T10:21:58;-5.10;99.90
18906;DHT22;9585;51.018;4.282;2022-12-18T10:24:32;-5.10;99.90
18906;DHT22;9585;51.018;4.282;2022-12-18T10:27:12;-5.00;99.90
18906;DHT22;9585;51.018;4.282;2022-12-18T10:29:42;-4.90;99.90
18906;DHT22;9585;51.018;4.282;2022-12-18T10:32:14;-4.90;99.90
18906;DHT22;9585;51.018;4.282;2022-12-18T10:34:48;-4.80;99.90
18906;DHT22;9585;51.018;4.282;2022-12-18T10:37:18;-4.80;99.90
18906;DHT22;9585;51.018;4.282;2022-12-18T10:40:07;-4.60;99.90
18906;DHT22;9585;51.018;4.282;2022-12-18T10:42:38;-4.60;99.90
18906;DHT22;9585;51.018;4.282;2022-12-18T10:45:10;-4.60;99.90
18906;DHT22;9585;51.018;4.282;2022-12-18T10:47:43;-4.70;99.90
18906;DHT22;9585;51.018;4.282;2022-12-18T10:50:24;-4.60;99.90
18906;DHT22;9585;51.018;4.282;2022-12-18T10:52:55;-4.50;99.90
18906;DHT22;9585;51.018;4.282;2022-12-18T10:55:27;-4.40;99.90
18906;DHT22;9585;51.018;4.282;2022-12-18T10:58:13;-4.20;99.90
18906;DHT22;9585;51.018;4.282;2022-12-18T11:00:43;-4.00;99.90
18906;DHT22;9585;51.018;4.282;2022-12-18T11:03:29;-3.90;99.90
18906;DHT22;9585;51.018;4.282;2022-12-18T11:06:06;-3.80;99.90
18906;DHT22;9585;51.018;4.282;2022-12-18T11:08:34;-3.80;99.90
18906;DHT22;9585;51.018;4.282;2022-12-18T11:11:07;-3.70;99.90
18906;DHT22;9585;51.018;4.282;2022-12-18T11:13:58;-3.70;99.90
18906;DHT22;9585;51.018;4.282;2022-12-18T11:16:27;-3.40;99.90
18906;DHT22;9585;51.018;4.282;2022-12-18T11:18:55;-3.40;99.90
18906;DHT22;9585;51.018;4.282;2022-12-18T11:21:39;-3.40;99.90
18906;DHT22;9585;51.018;4.282;2022-12-18T11:24:22;-3.40;99.90
18906;DHT22;9585;51.018;4.282;2022-12-18T11:26:52;-3.40;99.90
18906;DHT22;9585;51.018;4.282;2022-12-18T11:29:31;-3.30;99.90
18906;DHT22;9585;51.018;4.282;2022-12-18T11:32:24;-3.20;99.90
18906;DHT22;9585;51.018;4.282;2022-12-18T11:34:59;-3.00;99.90
18906;DHT22;9585;51.018;4.282;2022-12-18T11:37:28;-2.80;99.90
18906;DHT22;9585;51.018;4.282;2022-12-18T11:39:58;-2.90;99.90
18906;DHT22;9585;51.018;4.282;2022-12-18T11:42:34;-3.00;99.90
18906;DHT22;9585;51.018;4.282;2022-12-18T11:45:18;-2.90;99.90
18906;DHT22;9585;51.018;4.282;2022-12-18T11:47:52;-2.90;99.90
18906;DHT22;9585;51.018;4.282;2022-12-18T11:50:24;-2.80;99.90
18906;DHT22;9585;51.018;4.282;2022-12-18T11:52:52;-2.90;99.90
18906;DHT22;9585;51.018;4.282;2022-12-18T11:55:26;-3.00;99.90
18906;DHT22;9585;51.018;4.282;2022-12-18T11:58:03;-3.00;99.90
18906;DHT22;9585;51.018;4.282;2022-12-18T12:00:40;-3.00;99.90
18906;DHT22;9585;51.018;4.282;2022-12-18T12:03:24;-3.00;99.90
18906;DHT22;9585;51.018;4.282;2022-12-18T12:06:03;-2.80;99.90
18906;DHT22;9585;51.018;4.282;2022-12-18T12:08:44;-2.90;99.90
18906;DHT22;9585;51.018;4.282;2022-12-18T12:11:20;-2.90;99.90
18906;DHT22;9585;51.018;4.282;2022-12-18T12:14:05;-2.80;99.90
18906;DHT22;9585;51.018;4.282;2022-12-18T12:16:52;-2.90;99.90
18906;DHT22;9585;51.018;4.282;2022-12-18T12:19:36;-2.90;99.90
18906;DHT22;9585;51.018;4.282;2022-12-18T12:22:13;-2.80;99.90
18906;DHT22;9585;51.018;4.282;2022-12-18T12:24:51;-2.80;99.90
18906;DHT22;9585;51.018;4.282;2022-12-18T12:27:28;-2.60;99.90
18906;DHT22;9585;51.018;4.282;2022-12-18T12:30:05;-2.70;99.90
18906;DHT22;9585;51.018;4.282;2022-12-18T12:32:49;-2.80;99.90
18906;DHT22;9585;51.018;4.282;2022-12-18T12:35:29;-2.70;99.90
18906;DHT22;9585;51.018;4.282;2022-12-18T12:38:06;-2.70;99.90
18906;DHT22;9585;51.018;4.282;2022-12-18T12:40:38;-2.70;99.90
18906;DHT22;9585;51.018;4.282;2022-12-18T12:43:23;-2.60;99.90
18906;DHT22;9585;51.018;4.282;2022-12-18T12:45:55;-2.50;99.90
18906;DHT22;9585;51.018;4.282;2022-12-18T12:48:36;-2.60;99.90
18906;DHT22;9585;51.018;4.282;2022-12-18T12:51:10;-2.60;99.90
18906;DHT22;9585;51.018;4.282;2022-12-18T12:53:39;-2.60;99.90
18906;DHT22;9585;51.018;4.282;2022-12-18T12:56:09;-2.60;99.90
18906;DHT22;9585;51.018;4.282;2022-12-18T12:58:45;-2.60;99.90
18906;DHT22;9585;51.018;4.282;2022-12-18T13:01:22;-2.50;99.90
18906;DHT22;9585;51.018;4.282;2022-12-18T13:04:00;-2.30;99.90
18906;DHT22;9585;51.018;4.282;2022-12-18T13:06:38;-2.20;99.90
18906;DHT22;9585;51.018;4.282;2022-12-18T13:09:07;-2.10;99.90
18906;DHT22;9585;51.018;4.282;2022-12-18T13:11:37;-2.10;99.90
18906;DHT22;9585;51.018;4.282;2022-12-18T13:14:24;-2.00;99.90
18906;DHT22;9585;51.018;4.282;2022-12-18T13:17:24;-2.00;99.90
18906;DHT22;9585;51.018;4.282;2022-12-18T13:20:08;-2.00;99.90
18906;DHT22;9585;51.018;4.282;2022-12-18T13:22:37;-1.90;99.90
18906;DHT22;9585;51.018;4.282;2022-12-18T13:25:33;-1.80;99.90
18906;DHT22;9585;51.018;4.282;2022-12-18T13:28:10;-1.80;99.90
18906;DHT22;9585;51.018;4.282;2022-12-18T13:30:44;-1.80;99.90
18906;DHT22;9585;51.018;4.282;2022-12-18T13:33:39;-1.90;99.90
18906;DHT22;9585;51.018;4.282;2022-12-18T13:36:13;-1.70;99.90
18906;DHT22;9585;51.018;4.282;2022-12-18T13:38:42;-1.50;99.90
18906;DHT22;9585;51.018;4.282;2022-12-18T13:41:24;-1.40;99.90
18906;DHT22;9585;51.018;4.282;2022-12-18T13:43:52;-1.30;99.90
18906;DHT22;9585;51.018;4.282;2022-12-18T13:46:28;-1.30;99.90
18906;DHT22;9585;51.018;4.282;2022-12-18T13:49:00;-1.20;99.90
18906;DHT22;9585;51.018;4.282;2022-12-18T13:51:32;-1.20;99.90
18906;DHT22;9585;51.018;4.282;2022-12-18T13:54:01;-1.00;99.90
18906;DHT22;9585;51.018;4.282;2022-12-18T13:56:32;-1.10;99.90
18906;DHT22;9585;51.018;4.282;2022-12-18T13:59:18;-1.10;99.90
18906;DHT22;9585;51.018;4.282;2022-12-18T14:01:48;-1.00;99.90
18906;DHT22;9585;51.018;4.282;2022-12-18T14:04:26;-1.00;99.90
18906;DHT22;9585;51.018;4.282;2022-12-18T14:06:57;-0.90;99.90
18906;DHT22;9585;51.018;4.282;2022-12-18T14:09:27;-0.90;99.90
18906;DHT22;9585;51.018;4.282;2022-12-18T14:11:56;-0.80;99.90
18906;DHT22;9585;51.018;4.282;2022-12-18T14:14:41;-0.70;99.90
18906;DHT22;9585;51.018;4.282;2022-12-18T14:17:11;-0.70;99.90
18906;DHT22;9585;51.018;4.282;2022-12-18T14:19:43;-0.70;99.90
18906;DHT22;9585;51.018;4.282;2022-12-18T14:22:16;-0.60;99.90
18906;DHT22;9585;51.018;4.282;2022-12-18T14:24:44;-0.60;99.90
18906;DHT22;9585;51.018;4.282;2022-12-18T14:27:21;-0.60;99.90
18906;DHT22;9585;51.018;4.282;2022-12-18T14:29:50;-0.60;99.90
18906;DHT22;9585;51.018;4.282;2022-12-18T14:32:19;-0.70;99.90
18906;DHT22;9585;51.018;4.282;2022-12-18T14:34:51;-0.70;99.90
18906;DHT22;9585;51.018;4.282;2022-12-18T14:37:22;-0.80;99.90
18906;DHT22;9585;51.018;4.282;2022-12-18T14:39:56;-0.80;99.90
18906;DHT22;9585;51.018;4.282;2022-12-18T14:42:24;-0.80;99.90
18906;DHT22;9585;51.018;4.282;2022-12-18T14:45:33;-0.80;99.90
18906;DHT22;9585;51.018;4.282;2022-12-18T14:48:05;-0.80;99.90
18906;DHT22;9585;51.018;4.282;2022-12-18T14:50:35;-0.90;99.90
18906;DHT22;9585;51.018;4.282;2022-12-18T14:53:02;-0.80;99.90
18906;DHT22;9585;51.018;4.282;2022-12-18T14:55:30;-0.90;99.90
18906;DHT22;9585;51.018;4.282;2022-12-18T14:58:02;-0.80;99.90
18906;DHT22;9585;51.018;4.282;2022-12-18T15:00:30;-0.80;99.90
18906;DHT22;9585;51.018;4.282;2022-12-18T15:02:58;-0.90;99.90
18906;DHT22;9585;51.018;4.282;2022-12-18T15:05:27;-0.90;99.90
18906;DHT22;9585;51.018;4.282;2022-12-18T15:07:57;-0.80;99.90
18906;DHT22;9585;51.018;4.282;2022-12-18T15:10:26;-0.80;99.90
18906;DHT22;9585;51.018;4.282;2022-12-18T15:13:08;-0.80;99.90
18906;DHT22;9585;51.018;4.282;2022-12-18T15:15:45;-0.80;99.90
18906;DHT22;9585;51.018;4.282;2022-12-18T15:18:14;-0.90;99.90
18906;DHT22;9585;51.018;4.282;2022-12-18T15:20:44;-0.90;99.90
18906;DHT22;9585;51.018;4.282;2022-12-18T15:23:18;-0.80;99.90
18906;DHT22;9585;51.018;4.282;2022-12-18T15:25:48;-0.80;99.90
18906;DHT22;9585;51.018;4.282;2022-12-18T15:28:20;-0.70;99.90
18906;DHT22;9585;51.018;4.282;2022-12-18T15:31:04;-0.70;99.90
18906;DHT22;9585;51.018;4.282;2022-12-18T15:33:34;-0.70;99.90
18906;DHT22;9585;51.018;4.282;2022-12-18T15:36:03;-0.80;99.90
18906;DHT22;9585;51.018;4.282;2022-12-18T15:38:33;-0.70;99.90
18906;DHT22;9585;51.018;4.282;2022-12-18T15:41:00;-0.70;99.90
18906;DHT22;9585;51.018;4.282;2022-12-18T15:43:29;-0.60;99.90
18906;DHT22;9585;51.018;4.282;2022-12-18T15:46:05;-0.60;99.90
18906;DHT22;9585;51.018;4.282;2022-12-18T15:48:34;-0.60;99.90
18906;DHT22;9585;51.018;4.282;2022-12-18T15:51:02;-0.60;99.90
18906;DHT22;9585;51.018;4.282;2022-12-18T15:53:32;-0.60;99.90
18906;DHT22;9585;51.018;4.282;2022-12-18T15:56:00;-0.60;99.90
18906;DHT22;9585;51.018;4.282;2022-12-18T15:58:44;-0.60;99.90
18906;DHT22;9585;51.018;4.282;2022-12-18T16:01:25;-0.50;99.90
18906;DHT22;9585;51.018;4.282;2022-12-18T16:03:52;-0.50;99.90
18906;DHT22;9585;51.018;4.282;2022-12-18T16:06:20;-0.50;99.90
18906;DHT22;9585;51.018;4.282;2022-12-18T16:08:49;-0.50;99.90
18906;DHT22;9585;51.018;4.282;2022-12-18T16:11:21;-0.40;99.90
18906;DHT22;9585;51.018;4.282;2022-12-18T16:14:05;-0.40;99.90